createdAt,value
2018-07-12T00:02:13.774Z,58.49
2018-07-12T00:04:39.780Z,58.45
2018-07-12T00:07:05.785Z,58.40
2018-07-12T00:09:31.815Z,58.44
2018-07-12T00:11:57.801Z,58.41
2018-07-12T00:14:23.811Z,58.40
2018-07-12T00:16:49.820Z,58.42
2018-07-12T00:19:15.828Z,58.39
2018-07-12T00:21:41.836Z,58.34
2018-07-12T00:24:07.841Z,58.40
2018-07-12T00:26:33.851Z,58.32
2018-07-12T00:28:59.857Z,58.36
2018-07-12T00:31:25.863Z,58.33
2018-07-12T00:33:51.957Z,58.31
2018-07-12T00:36:17.884Z,58.36
2018-07-12T00:38:43.911Z,58.37
2018-07-12T00:41:09.930Z,58.27
2018-07-12T00:43:35.935Z,58.35
2018-07-12T00:46:01.953Z,58.32
2018-07-12T00:48:27.959Z,58.29
2018-07-12T00:50:53.968Z,58.26
2018-07-12T00:53:19.979Z,58.38
2018-07-12T00:55:45.987Z,58.33
2018-07-12T00:58:11.996Z,58.24
2018-07-12T01:00:38.002Z,58.27
2018-07-12T01:03:04.016Z,58.27
2018-07-12T01:05:30.015Z,58.22
2018-07-12T01:07:56.032Z,58.24
2018-07-12T01:10:22.038Z,58.24
2018-07-12T01:12:48.047Z,58.28
2018-07-12T01:15:14.046Z,58.21
2018-07-12T01:17:40.051Z,58.21
2018-07-12T01:20:06.052Z,58.23
2018-07-12T01:22:32.052Z,58.19
2018-07-12T01:24:58.065Z,58.23
2018-07-12T01:27:24.066Z,58.15
2018-07-12T01:29:50.072Z,58.16
2018-07-12T01:32:16.070Z,58.17
2018-07-12T01:34:42.076Z,58.18
2018-07-12T01:37:08.082Z,58.25
2018-07-12T01:39:34.083Z,58.13
2018-07-12T01:42:00.095Z,58.17
2018-07-12T01:44:26.100Z,58.15
2018-07-12T01:46:52.094Z,58.12
2018-07-12T01:49:18.104Z,58.09
2018-07-12T01:51:44.104Z,58.16
2018-07-12T01:54:10.114Z,58.05
2018-07-12T01:56:36.113Z,58.22
2018-07-12T01:59:02.121Z,58.15
2018-07-12T02:01:28.129Z,58.09
2018-07-12T02:03:54.150Z,58.16
2018-07-12T02:06:20.164Z,58.03
2018-07-12T02:08:46.178Z,58.12
2018-07-12T02:11:12.182Z,58.02
2018-07-12T02:13:38.188Z,58.12
2018-07-12T02:16:04.194Z,58.05
2018-07-12T02:18:30.198Z,58.07
2018-07-12T02:20:56.216Z,57.99
2018-07-12T02:23:22.225Z,57.97
2018-07-12T02:25:48.241Z,58.02
2018-07-12T02:28:14.239Z,58.17
2018-07-12T02:30:40.242Z,57.96
2018-07-12T02:33:06.241Z,57.98
2018-07-12T02:35:32.248Z,57.99
2018-07-12T02:37:58.248Z,57.97
2018-07-12T02:40:24.262Z,57.99
2018-07-12T02:42:50.271Z,57.94
2018-07-12T02:45:16.275Z,58.01
2018-07-12T02:47:42.277Z,57.91
2018-07-12T02:50:08.281Z,57.97
2018-07-12T02:52:34.282Z,58.05
2018-07-12T02:55:00.314Z,58.02
2018-07-12T02:57:26.323Z,58.00
2018-07-12T02:59:52.320Z,57.98
2018-07-12T03:02:18.323Z,57.95
2018-07-12T03:04:44.332Z,58.05
2018-07-12T03:07:10.378Z,57.99
2018-07-12T03:09:36.394Z,57.98
2018-07-12T03:12:02.409Z,57.95
2018-07-12T03:14:28.402Z,57.99
2018-07-12T03:16:54.419Z,57.99
2018-07-12T03:19:20.424Z,57.95
2018-07-12T03:21:46.424Z,57.99
2018-07-12T03:24:12.432Z,57.97
2018-07-12T03:26:38.431Z,57.96
2018-07-12T03:29:04.445Z,57.97
2018-07-12T03:31:30.454Z,57.97
2018-07-12T03:33:56.460Z,57.98
2018-07-12T03:36:22.476Z,58.00
2018-07-12T03:38:48.480Z,57.91
2018-07-12T03:41:14.486Z,57.88
2018-07-12T03:43:40.492Z,57.91
2018-07-12T03:46:06.510Z,57.89
2018-07-12T03:48:32.520Z,57.84
2018-07-12T03:50:58.527Z,57.90
2018-07-12T03:53:24.531Z,57.80
2018-07-12T03:55:50.547Z,57.84
2018-07-12T03:58:16.550Z,57.80
2018-07-12T04:00:42.551Z,57.85
2018-07-12T04:03:08.563Z,57.87
2018-07-12T04:05:34.568Z,57.85
2018-07-12T04:08:00.579Z,57.86
2018-07-12T04:10:26.592Z,57.91
2018-07-12T04:12:52.604Z,57.82
2018-07-12T04:15:18.618Z,57.86
2018-07-12T04:17:44.662Z,58.09
2018-07-12T04:20:10.668Z,58.07
2018-07-12T04:22:36.673Z,57.90
2018-07-12T04:25:02.683Z,58.19
2018-07-12T04:27:28.690Z,58.15
2018-07-12T04:29:54.692Z,58.05
2018-07-12T04:32:20.696Z,58.17
2018-07-12T04:34:46.743Z,58.37
2018-07-12T04:37:12.708Z,57.97
2018-07-12T04:39:38.708Z,57.93
2018-07-12T04:42:04.712Z,58.29
2018-07-12T04:44:30.714Z,58.32
2018-07-12T04:46:56.714Z,58.03
2018-07-12T04:49:22.720Z,58.20
2018-07-12T04:51:48.728Z,57.96
2018-07-12T04:54:14.754Z,57.99
2018-07-12T04:56:40.790Z,58.42
2018-07-12T04:59:06.778Z,58.67
2018-07-12T05:01:32.778Z,58.33
2018-07-12T05:03:58.911Z,58.70
2018-07-12T05:06:24.918Z,58.41
2018-07-12T05:08:50.933Z,58.38
2018-07-12T05:11:16.939Z,58.27
2018-07-12T05:13:42.958Z,58.22
2018-07-12T05:16:08.992Z,58.21
2018-07-12T05:18:34.947Z,58.24
2018-07-12T05:21:01.032Z,58.23
2018-07-12T05:23:27.009Z,58.15
2018-07-12T05:25:53.017Z,58.25
2018-07-12T05:28:19.038Z,58.30
2018-07-12T05:30:45.107Z,58.23
2018-07-12T05:33:11.056Z,58.11
2018-07-12T05:35:37.061Z,58.12
2018-07-12T05:38:03.073Z,58.04
2018-07-12T05:40:29.091Z,58.27
2018-07-12T05:42:55.115Z,58.45
2018-07-12T05:45:21.126Z,58.40
2018-07-12T05:47:47.162Z,58.25
2018-07-12T05:50:13.164Z,58.38
2018-07-12T05:52:39.168Z,58.39
2018-07-12T05:55:05.310Z,58.36
2018-07-12T05:57:31.314Z,58.40
2018-07-12T05:59:57.314Z,58.24
2018-07-12T06:02:23.324Z,58.37
2018-07-12T06:04:49.337Z,58.31
2018-07-12T06:07:15.352Z,58.41
2018-07-12T06:09:41.361Z,58.42
2018-07-12T06:12:07.415Z,58.31
2018-07-12T06:14:33.425Z,58.39
2018-07-12T06:16:59.467Z,58.35
2018-07-12T06:19:25.445Z,58.31
2018-07-12T06:21:51.468Z,58.24
2018-07-12T06:24:17.484Z,58.46
2018-07-12T06:26:43.485Z,58.66
2018-07-12T06:29:09.497Z,58.44
2018-07-12T06:31:35.506Z,58.80
2018-07-12T06:34:01.510Z,58.97
2018-07-12T06:36:27.515Z,59.10
2018-07-12T06:38:53.525Z,58.97
2018-07-12T06:41:19.531Z,58.98
2018-07-12T06:43:45.540Z,58.98
2018-07-12T06:46:11.548Z,58.83
2018-07-12T06:48:37.586Z,58.83
2018-07-12T06:51:03.581Z,58.70
2018-07-12T06:53:29.587Z,58.79
2018-07-12T06:55:55.597Z,58.76
2018-07-12T06:58:21.617Z,58.73
2018-07-12T07:00:47.620Z,58.75
2018-07-12T07:03:13.656Z,58.79
2018-07-12T07:05:39.858Z,58.79
2018-07-12T07:08:05.932Z,58.61
2018-07-12T07:10:31.942Z,58.44
2018-07-12T07:12:57.961Z,58.66
2018-07-12T07:15:23.969Z,59.15
2018-07-12T07:17:50.030Z,59.19
2018-07-12T07:20:16.113Z,58.70
2018-07-12T07:22:42.057Z,59.07
2018-07-12T07:25:08.173Z,59.27
2018-07-12T07:27:34.154Z,59.00
2018-07-12T07:30:00.176Z,58.88
2018-07-12T07:32:26.185Z,58.94
2018-07-12T07:34:52.184Z,59.01
2018-07-12T07:37:18.183Z,59.52
2018-07-12T07:39:44.192Z,59.39
2018-07-12T07:42:10.196Z,59.26
2018-07-12T07:44:36.201Z,59.41
2018-07-12T07:47:02.218Z,59.10
2018-07-12T07:49:28.209Z,59.11
2018-07-12T07:51:54.221Z,59.26
2018-07-12T07:54:20.227Z,59.25
2018-07-12T07:56:46.250Z,59.38
2018-07-12T07:59:12.263Z,59.25
2018-07-12T08:01:38.273Z,59.59
2018-07-12T08:04:04.291Z,59.42
2018-07-12T08:06:30.286Z,59.56
2018-07-12T08:08:56.291Z,59.21
2018-07-12T08:11:22.288Z,58.92
2018-07-12T08:13:48.346Z,59.04
2018-07-12T08:16:14.347Z,58.77
2018-07-12T08:18:40.334Z,58.74
2018-07-12T08:21:06.341Z,58.85
2018-07-12T08:23:32.355Z,58.90
2018-07-12T08:25:58.341Z,58.82
2018-07-12T08:28:24.354Z,58.75
2018-07-12T08:30:50.351Z,58.79
2018-07-12T08:33:16.378Z,59.15
2018-07-12T08:35:42.368Z,58.84
2018-07-12T08:38:08.369Z,58.88
2018-07-12T08:40:34.395Z,59.13
2018-07-12T08:43:00.413Z,59.38
2018-07-12T08:45:26.414Z,59.28
2018-07-12T08:47:52.467Z,59.27
2018-07-12T08:50:18.475Z,59.30
2018-07-12T08:52:44.484Z,59.22
2018-07-12T08:55:10.493Z,59.25
2018-07-12T08:57:36.529Z,59.22
2018-07-12T09:00:02.541Z,59.38
2018-07-12T09:02:28.549Z,59.18
2018-07-12T09:04:54.551Z,59.40
2018-07-12T09:07:20.554Z,59.39
2018-07-12T09:09:46.568Z,59.12
2018-07-12T09:12:12.554Z,59.30
2018-07-12T09:14:38.659Z,59.45
2018-07-12T09:17:04.671Z,59.45
2018-07-12T09:19:30.670Z,59.40
2018-07-12T09:21:56.682Z,59.16
2018-07-12T09:24:22.720Z,59.13
2018-07-12T09:26:48.722Z,59.40
2018-07-12T09:29:14.744Z,59.39
2018-07-12T09:31:40.732Z,59.45
2018-07-12T09:34:06.731Z,59.33
2018-07-12T09:36:32.743Z,59.28
2018-07-12T09:38:58.782Z,59.33
2018-07-12T09:41:24.826Z,59.19
2018-07-12T09:43:50.830Z,59.09
2018-07-12T09:46:16.870Z,58.85
2018-07-12T09:48:42.888Z,59.02
2018-07-12T09:51:08.943Z,59.02
2018-07-12T09:53:34.949Z,59.03
2018-07-12T09:56:01.064Z,58.99
2018-07-12T09:58:26.958Z,58.78
2018-07-12T10:00:52.968Z,58.94
2018-07-12T10:03:18.972Z,58.79
2018-07-12T10:05:44.977Z,58.81
2018-07-12T10:08:11.274Z,58.87
2018-07-12T10:10:37.337Z,58.77
2018-07-12T10:13:03.265Z,58.80
2018-07-12T10:15:29.294Z,58.79
2018-07-12T10:17:55.297Z,58.80
2018-07-12T10:20:21.311Z,58.79
2018-07-12T10:22:47.314Z,58.77
2018-07-12T10:25:13.337Z,58.73
2018-07-12T10:27:39.385Z,58.74
2018-07-12T10:30:05.430Z,58.71
2018-07-12T10:32:31.439Z,58.66
2018-07-12T10:34:57.442Z,58.60
2018-07-12T10:37:23.488Z,58.55
2018-07-12T10:39:49.483Z,58.50
2018-07-12T10:42:15.476Z,58.45
2018-07-12T10:44:41.589Z,58.38
2018-07-12T10:47:07.606Z,58.26
2018-07-12T10:49:33.607Z,58.25
2018-07-12T10:51:59.612Z,58.20
2018-07-12T10:54:25.617Z,58.14
2018-07-12T10:56:51.657Z,58.11
2018-07-12T10:59:17.695Z,58.05
2018-07-12T11:01:43.751Z,58.01
2018-07-12T11:04:09.779Z,57.95
2018-07-12T11:06:35.827Z,57.75
2018-07-12T11:09:01.872Z,57.79
2018-07-12T11:11:27.852Z,57.73
2018-07-12T11:13:53.851Z,57.79
2018-07-12T11:16:19.889Z,57.58
2018-07-12T11:18:45.869Z,57.55
2018-07-12T11:21:11.956Z,57.53
2018-07-12T11:23:37.915Z,57.48
2018-07-12T11:26:03.921Z,57.50
2018-07-12T11:28:29.920Z,57.44
2018-07-12T11:30:55.972Z,57.43
2018-07-12T11:33:21.954Z,57.40
2018-07-12T11:35:47.962Z,57.39
2018-07-12T11:38:13.960Z,57.39
2018-07-12T11:40:39.970Z,57.29
2018-07-12T11:43:05.998Z,57.20
2018-07-12T11:45:32.013Z,57.28
2018-07-12T11:47:58.016Z,57.17
2018-07-12T11:50:24.071Z,57.14
2018-07-12T11:52:50.083Z,57.12
2018-07-12T11:55:16.085Z,57.07
2018-07-12T11:57:42.148Z,57.08
2018-07-12T12:00:08.173Z,57.13
2018-07-12T12:02:34.170Z,57.07
2018-07-12T12:05:00.182Z,57.10
2018-07-12T12:07:26.203Z,57.13
2018-07-12T12:09:52.210Z,57.17
2018-07-12T12:12:18.216Z,57.22
2018-07-12T12:14:44.222Z,57.17
2018-07-12T12:17:10.219Z,57.17
2018-07-12T12:19:36.265Z,57.17
2018-07-12T12:22:02.272Z,57.17
2018-07-12T12:24:28.267Z,57.22
2018-07-12T12:26:54.299Z,57.19
2018-07-12T12:29:20.303Z,57.29
2018-07-12T12:31:46.313Z,57.24
2018-07-12T12:34:12.335Z,57.20
2018-07-12T12:36:38.351Z,57.21
2018-07-12T12:39:04.376Z,57.25
2018-07-12T12:41:30.390Z,57.17
2018-07-12T12:43:56.391Z,57.19
2018-07-12T12:46:22.390Z,57.08
2018-07-12T12:48:48.394Z,57.04
2018-07-12T12:51:14.435Z,57.06
2018-07-12T12:53:40.437Z,57.00
2018-07-12T12:56:06.470Z,57.09
2018-07-12T12:58:32.486Z,56.98
2018-07-12T13:00:58.488Z,56.98
2018-07-12T13:03:24.497Z,56.96
2018-07-12T13:05:50.493Z,56.95
2018-07-12T13:08:16.495Z,56.97
2018-07-12T13:10:42.513Z,56.90
2018-07-12T13:13:08.546Z,56.81
2018-07-12T13:15:34.546Z,56.85
2018-07-12T13:18:00.578Z,56.95
2018-07-12T13:20:26.586Z,56.82
2018-07-12T13:22:52.608Z,56.77
2018-07-12T13:25:18.596Z,56.72
2018-07-12T13:27:44.635Z,56.71
2018-07-12T13:30:10.610Z,56.72
2018-07-12T13:32:36.708Z,56.75
2018-07-12T13:35:02.715Z,56.55
2018-07-12T13:37:28.722Z,56.52
2018-07-12T13:39:54.770Z,56.52
2018-07-12T13:42:20.773Z,56.48
2018-07-12T13:44:46.782Z,56.51
2018-07-12T13:47:12.785Z,56.36
2018-07-12T13:49:38.806Z,56.96
2018-07-12T13:52:04.840Z,57.22
2018-07-12T13:54:30.806Z,57.33
2018-07-12T13:56:56.824Z,57.41
2018-07-12T13:59:22.826Z,57.31
2018-07-12T14:01:48.847Z,57.35
2018-07-12T14:04:14.838Z,57.33
2018-07-12T14:06:40.874Z,57.30
2018-07-12T14:09:06.875Z,57.46
2018-07-12T14:11:32.846Z,58.26
2018-07-12T14:13:58.894Z,57.91
2018-07-12T14:16:25.031Z,58.33
2018-07-12T14:18:51.079Z,58.07
2018-07-12T14:21:17.095Z,57.99
2018-07-12T14:23:43.141Z,57.87
2018-07-12T14:26:09.185Z,57.70
2018-07-12T14:28:35.172Z,57.62
2018-07-12T14:31:01.204Z,57.66
2018-07-12T14:33:27.191Z,57.60
2018-07-12T14:35:53.200Z,57.52
2018-07-12T14:38:19.199Z,57.45
2018-07-12T14:40:45.210Z,57.35
2018-07-12T14:43:11.571Z,57.34
2018-07-12T14:45:37.591Z,57.32
2018-07-12T14:48:03.604Z,57.30
2018-07-12T14:50:29.715Z,57.25
2018-07-12T14:52:55.769Z,57.25
2018-07-12T14:55:21.877Z,57.21
2018-07-12T14:57:47.853Z,57.19
2018-07-12T15:00:13.867Z,57.25
2018-07-12T15:02:39.975Z,57.25
2018-07-12T15:05:05.897Z,57.41
2018-07-12T15:07:31.908Z,57.59
2018-07-12T15:09:57.922Z,58.01
2018-07-12T15:12:23.926Z,58.03
2018-07-12T15:14:49.946Z,57.94
2018-07-12T15:17:15.971Z,57.84
2018-07-12T15:19:41.999Z,58.41
2018-07-12T15:22:08.008Z,58.28
2018-07-12T15:24:34.301Z,58.08
2018-07-12T15:27:00.209Z,58.01
2018-07-12T15:29:26.623Z,57.97
2018-07-12T15:31:52.492Z,58.14
2018-07-12T15:34:18.499Z,58.02
2018-07-12T15:36:44.517Z,57.74
2018-07-12T15:39:10.518Z,57.72
2018-07-12T15:41:36.522Z,57.62
2018-07-12T15:44:02.584Z,57.56
2018-07-12T15:46:28.527Z,57.69
2018-07-12T15:48:54.532Z,57.50
2018-07-12T15:51:20.554Z,57.62
2018-07-12T15:53:46.552Z,57.51
2018-07-12T15:56:12.579Z,58.03
2018-07-12T15:58:38.589Z,57.74
2018-07-12T16:01:04.596Z,58.33
2018-07-12T16:03:30.604Z,58.22
2018-07-12T16:05:56.631Z,57.88
2018-07-12T16:08:22.652Z,57.94
2018-07-12T16:10:48.715Z,58.28
2018-07-12T16:13:14.764Z,58.15
2018-07-12T16:15:40.846Z,58.31
2018-07-12T16:18:06.844Z,57.72
2018-07-12T16:20:32.850Z,58.24
2018-07-12T16:22:58.858Z,58.36
2018-07-12T16:25:24.860Z,58.24
2018-07-12T16:27:51.009Z,58.87
2018-07-12T16:30:19.963Z,58.19
2018-07-12T16:32:46.032Z,58.52
2018-07-12T16:35:12.035Z,58.81
2018-07-12T16:37:38.080Z,58.79
2018-07-12T16:40:04.081Z,59.26
2018-07-12T16:42:30.116Z,59.60
2018-07-12T16:44:56.271Z,59.39
2018-07-12T16:47:22.272Z,58.59
2018-07-12T16:49:48.291Z,59.25
2018-07-12T16:52:14.975Z,58.88
2018-07-12T16:54:40.977Z,59.07
2018-07-12T16:57:06.988Z,58.47
2018-07-12T16:59:33.028Z,58.95
2018-07-12T17:01:59.095Z,58.46
2018-07-12T17:04:25.097Z,58.73
2018-07-12T17:06:51.103Z,60.04
2018-07-12T17:09:17.220Z,60.27
2018-07-12T17:11:43.203Z,60.75
2018-07-12T17:14:09.260Z,60.62
2018-07-12T17:16:35.219Z,60.47
2018-07-12T17:19:01.232Z,60.39
2018-07-12T17:21:27.240Z,61.80
2018-07-12T17:23:53.299Z,59.56
2018-07-12T17:26:19.314Z,59.79
2018-07-12T17:28:45.316Z,59.67
2018-07-12T17:31:11.412Z,59.35
2018-07-12T17:33:37.497Z,59.42
2018-07-12T17:36:03.412Z,60.49
2018-07-12T17:38:29.471Z,59.51
2018-07-12T17:40:55.490Z,60.29
2018-07-12T17:43:21.535Z,59.63
2018-07-12T17:45:47.555Z,59.36
2018-07-12T17:48:13.554Z,60.08
2018-07-12T17:50:39.599Z,60.46
2018-07-12T17:53:05.608Z,59.56
2018-07-12T17:55:31.622Z,60.44
2018-07-12T17:57:57.624Z,60.38
2018-07-12T18:00:23.672Z,60.45
2018-07-12T18:02:49.681Z,59.53
2018-07-12T18:05:15.864Z,60.60
2018-07-12T18:07:41.732Z,59.55
2018-07-12T18:10:07.762Z,60.44
2018-07-12T18:12:33.759Z,59.71
2018-07-12T18:14:59.771Z,59.61
2018-07-12T18:17:25.818Z,59.27
2018-07-12T18:19:51.826Z,59.21
2018-07-12T18:22:17.862Z,59.14
2018-07-12T18:24:43.844Z,59.44
2018-07-12T18:27:09.850Z,59.19
2018-07-12T18:29:35.875Z,59.21
2018-07-12T18:32:01.905Z,59.15
2018-07-12T18:34:27.925Z,59.78
2018-07-12T18:36:53.960Z,59.05
2018-07-12T18:39:20.022Z,59.75
2018-07-12T18:41:46.027Z,59.26
2018-07-12T18:44:12.071Z,58.91
2018-07-12T18:46:38.075Z,59.04
2018-07-12T18:49:04.092Z,59.13
2018-07-12T18:51:30.093Z,59.54
2018-07-12T18:53:56.093Z,58.94
2018-07-12T18:56:22.181Z,59.37
2018-07-12T18:58:48.189Z,59.30
2018-07-12T19:01:14.461Z,59.20
2018-07-12T19:03:40.487Z,59.70
2018-07-12T19:06:06.491Z,59.68
2018-07-12T19:08:32.546Z,59.10
2018-07-12T19:10:58.681Z,59.83
2018-07-12T19:13:24.685Z,59.37
2018-07-12T19:15:50.700Z,59.23
2018-07-12T19:18:16.701Z,59.61
2018-07-12T19:20:42.719Z,58.99
2018-07-12T19:23:08.739Z,59.74
2018-07-12T19:25:34.761Z,59.14
2018-07-12T19:28:00.771Z,59.46
2018-07-12T19:30:26.771Z,59.22
2018-07-12T19:32:52.783Z,59.39
2018-07-12T19:40:29.032Z,59.57
2018-07-12T19:45:39.134Z,59.43
2018-07-12T19:48:05.150Z,59.29
2018-07-12T19:50:31.163Z,59.08
2018-07-12T19:52:57.203Z,58.97
2018-07-12T19:55:23.170Z,59.02
2018-07-12T19:57:49.183Z,59.43
2018-07-12T20:00:15.227Z,59.01
2018-07-12T20:02:41.209Z,59.08
2018-07-12T20:05:07.321Z,59.29
2018-07-12T20:07:33.345Z,59.46
2018-07-12T20:09:59.387Z,59.19
2018-07-12T20:12:25.386Z,59.05
2018-07-12T20:14:51.399Z,59.32
2018-07-12T20:17:17.398Z,59.44
2018-07-12T20:19:43.454Z,59.36
2018-07-12T20:22:09.454Z,59.31
2018-07-12T20:24:35.465Z,59.40
2018-07-12T20:27:01.471Z,59.30
2018-07-12T20:29:27.473Z,59.32
2018-07-12T20:31:53.479Z,59.05
2018-07-12T20:34:19.493Z,59.24
2018-07-12T20:36:45.499Z,59.14
2018-07-12T20:39:11.514Z,59.29
2018-07-12T20:41:37.524Z,59.23
2018-07-12T20:44:03.533Z,59.21
2018-07-12T20:46:29.541Z,59.18
2018-07-12T20:48:55.542Z,59.20
2018-07-12T20:51:21.551Z,59.13
2018-07-12T20:53:47.729Z,59.02
2018-07-12T20:56:13.722Z,59.21
2018-07-12T20:58:39.737Z,59.10
2018-07-12T21:01:05.768Z,59.16
2018-07-12T21:03:31.748Z,59.17
2018-07-12T21:05:57.775Z,59.09
2018-07-12T21:08:23.824Z,58.91
2018-07-12T21:10:49.799Z,59.17
2018-07-12T21:13:15.812Z,59.11
2018-07-12T21:15:41.823Z,59.17
2018-07-12T21:18:07.844Z,59.16
2018-07-12T21:20:33.850Z,59.11
2018-07-12T21:22:59.864Z,59.00
2018-07-12T21:25:25.880Z,59.07
2018-07-12T21:27:51.888Z,59.03
2018-07-12T21:30:17.903Z,59.09
2018-07-12T21:32:43.920Z,59.08
2018-07-12T21:35:09.936Z,58.95
2018-07-12T21:37:35.946Z,59.05
2018-07-12T21:40:01.965Z,59.01
2018-07-12T21:42:27.972Z,59.09
2018-07-12T21:44:53.989Z,59.02
2018-07-12T21:47:19.999Z,59.01
2018-07-12T21:49:46.017Z,59.02
2018-07-12T21:52:12.027Z,58.99
2018-07-12T21:54:38.042Z,59.00
2018-07-12T21:57:04.054Z,58.94
2018-07-12T21:59:30.070Z,58.86
2018-07-12T22:01:56.092Z,58.97
2018-07-12T22:04:22.098Z,58.93
2018-07-12T22:06:48.106Z,58.93
2018-07-12T22:09:14.161Z,58.97
2018-07-12T22:11:40.183Z,58.85
2018-07-12T22:14:06.211Z,58.84
2018-07-12T22:16:32.250Z,58.90
2018-07-12T22:18:58.262Z,58.80
2018-07-12T22:21:24.284Z,58.81
2018-07-12T22:23:50.330Z,58.80
2018-07-12T22:26:16.345Z,58.83
2018-07-12T22:28:42.384Z,58.88
2018-07-12T22:31:08.401Z,58.80
2018-07-12T22:33:34.406Z,58.80
2018-07-12T22:36:00.422Z,58.85
2018-07-12T22:38:26.440Z,58.84
2018-07-12T22:40:52.452Z,58.79
2018-07-12T22:43:18.499Z,58.77
2018-07-12T22:45:44.501Z,58.75
2018-07-12T22:48:10.568Z,58.78
2018-07-12T22:50:36.545Z,58.71
2018-07-12T22:53:02.549Z,58.68
2018-07-12T22:55:28.564Z,58.72
2018-07-12T22:57:54.569Z,58.73
2018-07-12T23:00:20.578Z,58.64
2018-07-12T23:02:46.595Z,58.69
2018-07-12T23:05:12.620Z,58.64
2018-07-12T23:07:38.626Z,58.55
2018-07-12T23:10:04.638Z,58.61
2018-07-12T23:12:30.649Z,58.60
2018-07-12T23:14:56.652Z,58.55
2018-07-12T23:17:22.663Z,58.63
2018-07-12T23:19:48.674Z,58.57
2018-07-12T23:22:14.680Z,58.56
2018-07-12T23:24:40.773Z,58.59
2018-07-12T23:27:06.711Z,58.57
2018-07-12T23:29:32.722Z,58.57
2018-07-12T23:31:58.737Z,58.59
2018-07-12T23:34:24.742Z,58.59
2018-07-12T23:36:50.754Z,58.59
2018-07-12T23:39:16.807Z,58.61
2018-07-12T23:41:42.830Z,58.58
2018-07-12T23:44:08.845Z,58.58
2018-07-12T23:46:34.855Z,58.61
2018-07-12T23:49:00.867Z,58.51
2018-07-12T23:51:26.876Z,58.46
2018-07-12T23:53:52.893Z,58.42
2018-07-12T23:56:18.948Z,58.34
2018-07-12T23:58:44.968Z,58.37
